sensor_id;sensor_type;location;lat;lon;timestamp;P1;P2;P0
85148;PMS7003;75507;52.464;17.180;2024-03-02T00:00:02;88.75;77.75;46.00
85148;PMS7003;75507;52.464;17.180;2024-03-02T00:01:13;97.60;77.60;45.80
85148;PMS7003;75507;52.464;17.180;2024-03-02T00:02:14;90.60;81.20;47.00
85148;PMS7003;75507;52.464;17.180;2024-03-02T00:03:14;82.50;71.25;44.00
85148;PMS7003;75507;52.464;17.180;2024-03-02T00:04:15;91.00;79.25;46.25
85148;PMS7003;75507;52.464;17.180;2024-03-02T00:06:19;86.00;76.50;46.50
85148;PMS7003;75507;52.464;17.180;2024-03-02T00:07:21;93.20;78.20;45.20
85148;PMS7003;75507;52.464;17.180;2024-03-02T00:08:22;87.67;75.00;44.67
85148;PMS7003;75507;52.464;17.180;2024-03-02T00:09:24;90.80;78.40;47.60
85148;PMS7003;75507;52.464;17.180;2024-03-02T00:10:25;94.00;79.50;45.00
85148;PMS7003;75507;52.464;17.180;2024-03-02T00:11:39;84.25;75.50;45.25
85148;PMS7003;75507;52.464;17.180;2024-03-02T00:12:40;86.50;78.75;45.00
85148;PMS7003;75507;52.464;17.180;2024-03-02T00:13:40;83.50;72.00;43.25
85148;PMS7003;75507;52.464;17.180;2024-03-02T00:14:41;90.50;81.25;46.00
85148;PMS7003;75507;52.464;17.180;2024-03-02T00:15:42;83.67;75.00;43.00
85148;PMS7003;75507;52.464;17.180;2024-03-02T00:16:44;94.80;79.00;44.40
85148;PMS7003;75507;52.464;17.180;2024-03-02T00:17:44;94.00;78.67;45.33
85148;PMS7003;75507;52.464;17.180;2024-03-02T00:18:45;93.40;80.40;47.20
85148;PMS7003;75507;52.464;17.180;2024-03-02T00:19:46;82.00;72.00;45.75
85148;PMS7003;75507;52.464;17.180;2024-03-02T00:20:46;83.00;78.67;45.67
85148;PMS7003;75507;52.464;17.180;2024-03-02T00:21:47;86.00;78.00;43.00
85148;PMS7003;75507;52.464;17.180;2024-03-02T00:22:47;94.50;78.25;46.25
85148;PMS7003;75507;52.464;17.180;2024-03-02T00:23:48;87.00;76.00;45.00
85148;PMS7003;75507;52.464;17.180;2024-03-02T00:24:49;89.50;77.25;46.00
85148;PMS7003;75507;52.464;17.180;2024-03-02T00:25:52;84.75;76.50;46.00
85148;PMS7003;75507;52.464;17.180;2024-03-02T00:26:53;94.50;81.00;47.00
85148;PMS7003;75507;52.464;17.180;2024-03-02T00:27:54;86.25;79.50;44.25
85148;PMS7003;75507;52.464;17.180;2024-03-02T00:28:55;83.50;76.00;43.25
85148;PMS7003;75507;52.464;17.180;2024-03-02T00:29:56;86.80;77.40;43.60
85148;PMS7003;75507;52.464;17.180;2024-03-02T00:32:16;84.00;73.50;43.00
85148;PMS7003;75507;52.464;17.180;2024-03-02T00:33:17;84.40;76.60;47.00
85148;PMS7003;75507;52.464;17.180;2024-03-02T00:34:18;82.75;72.25;43.75
85148;PMS7003;75507;52.464;17.180;2024-03-02T00:35:19;89.00;80.67;47.00
85148;PMS7003;75507;52.464;17.180;2024-03-02T00:36:22;82.40;75.00;43.80
85148;PMS7003;75507;52.464;17.180;2024-03-02T00:37:24;89.25;78.50;46.50
85148;PMS7003;75507;52.464;17.180;2024-03-02T00:38:25;90.50;78.50;41.75
85148;PMS7003;75507;52.464;17.180;2024-03-02T00:39:27;91.60;76.60;44.60
85148;PMS7003;75507;52.464;17.180;2024-03-02T00:40:27;87.25;78.50;45.00
85148;PMS7003;75507;52.464;17.180;2024-03-02T00:41:30;86.75;76.25;44.50
85148;PMS7003;75507;52.464;17.180;2024-03-02T00:42:31;92.80;80.40;43.60
85148;PMS7003;75507;52.464;17.180;2024-03-02T00:44:40;91.25;76.75;43.75
85148;PMS7003;75507;52.464;17.180;2024-03-02T00:45:41;94.50;80.75;43.75
85148;PMS7003;75507;52.464;17.180;2024-03-02T00:46:42;84.00;77.50;43.25
85148;PMS7003;75507;52.464;17.180;2024-03-02T00:47:43;90.00;78.25;42.75
85148;PMS7003;75507;52.464;17.180;2024-03-02T00:48:58;84.25;75.75;44.00
85148;PMS7003;75507;52.464;17.180;2024-03-02T00:50:00;96.00;79.00;43.00
85148;PMS7003;75507;52.464;17.180;2024-03-02T00:51:00;87.00;75.00;41.25
85148;PMS7003;75507;52.464;17.180;2024-03-02T00:52:00;88.00;76.25;43.00
85148;PMS7003;75507;52.464;17.180;2024-03-02T00:53:01;83.00;78.50;45.00
85148;PMS7003;75507;52.464;17.180;2024-03-02T00:54:03;89.00;73.75;42.00
85148;PMS7003;75507;52.464;17.180;2024-03-02T00:55:06;83.40;73.60;42.80
85148;PMS7003;75507;52.464;17.180;2024-03-02T00:56:09;82.75;73.75;39.75
85148;PMS7003;75507;52.464;17.180;2024-03-02T00:57:10;82.40;69.80;39.40
85148;PMS7003;75507;52.464;17.180;2024-03-02T00:58:12;79.25;71.00;41.25
85148;PMS7003;75507;52.464;17.180;2024-03-02T00:59:12;85.00;73.00;43.00
85148;PMS7003;75507;52.464;17.180;2024-03-02T01:00:13;81.00;74.25;38.25
85148;PMS7003;75507;52.464;17.180;2024-03-02T01:01:15;88.40;72.80;41.60
85148;PMS7003;75507;52.464;17.180;2024-03-02T01:02:16;89.00;81.25;41.25
85148;PMS7003;75507;52.464;17.180;2024-03-02T01:03:16;80.25;66.50;38.75
85148;PMS7003;75507;52.464;17.180;2024-03-02T01:04:16;80.67;70.00;38.67
85148;PMS7003;75507;52.464;17.180;2024-03-02T01:05:17;81.67;69.67;39.00
85148;PMS7003;75507;52.464;17.180;2024-03-02T01:06:17;78.25;69.00;41.00
85148;PMS7003;75507;52.464;17.180;2024-03-02T01:07:17;80.33;72.00;41.00
85148;PMS7003;75507;52.464;17.180;2024-03-02T01:08:18;84.33;73.67;40.33
85148;PMS7003;75507;52.464;17.180;2024-03-02T01:09:18;81.33;74.33;41.00
85148;PMS7003;75507;52.464;17.180;2024-03-02T01:10:19;80.75;69.50;39.75
85148;PMS7003;75507;52.464;17.180;2024-03-02T01:11:20;82.75;71.00;40.25
85148;PMS7003;75507;52.464;17.180;2024-03-02T01:12:23;81.50;67.25;40.00
85148;PMS7003;75507;52.464;17.180;2024-03-02T01:13:24;81.50;68.75;41.00
85148;PMS7003;75507;52.464;17.180;2024-03-02T01:14:24;78.00;66.00;37.33
85148;PMS7003;75507;52.464;17.180;2024-03-02T01:15:24;78.50;68.25;39.50
85148;PMS7003;75507;52.464;17.180;2024-03-02T01:16:25;82.67;71.67;40.00
85148;PMS7003;75507;52.464;17.180;2024-03-02T01:17:25;73.67;65.00;39.00
85148;PMS7003;75507;52.464;17.180;2024-03-02T01:18:25;79.00;68.67;39.67
85148;PMS7003;75507;52.464;17.180;2024-03-02T01:19:26;79.25;65.00;39.75
85148;PMS7003;75507;52.464;17.180;2024-03-02T01:20:27;77.75;67.50;38.25
85148;PMS7003;75507;52.464;17.180;2024-03-02T01:21:27;77.67;64.33;38.00
85148;PMS7003;75507;52.464;17.180;2024-03-02T01:22:27;77.25;66.75;39.50
85148;PMS7003;75507;52.464;17.180;2024-03-02T01:23:28;78.75;70.50;37.75
85148;PMS7003;75507;52.464;17.180;2024-03-02T01:24:28;77.25;66.00;39.25
85148;PMS7003;75507;52.464;17.180;2024-03-02T01:25:28;77.67;68.00;41.00
85148;PMS7003;75507;52.464;17.180;2024-03-02T01:26:29;85.50;71.00;38.50
85148;PMS7003;75507;52.464;17.180;2024-03-02T01:27:29;79.67;67.33;38.33
85148;PMS7003;75507;52.464;17.180;2024-03-02T01:28:29;80.50;71.50;40.25
85148;PMS7003;75507;52.464;17.180;2024-03-02T01:29:30;77.00;65.00;37.00
85148;PMS7003;75507;52.464;17.180;2024-03-02T01:30:30;84.00;69.67;38.33
85148;PMS7003;75507;52.464;17.180;2024-03-02T01:31:30;78.50;68.75;36.00
85148;PMS7003;75507;52.464;17.180;2024-03-02T01:32:31;80.67;70.00;38.00
85148;PMS7003;75507;52.464;17.180;2024-03-02T01:33:31;82.75;68.00;35.75
85148;PMS7003;75507;52.464;17.180;2024-03-02T01:34:31;77.25;66.25;38.50
85148;PMS7003;75507;52.464;17.180;2024-03-02T01:35:32;79.75;65.50;36.00
85148;PMS7003;75507;52.464;17.180;2024-03-02T01:36:32;78.00;62.75;37.75
85148;PMS7003;75507;52.464;17.180;2024-03-02T01:37:33;76.00;64.75;36.00
85148;PMS7003;75507;52.464;17.180;2024-03-02T01:38:33;76.33;64.33;37.67
85148;PMS7003;75507;52.464;17.180;2024-03-02T01:39:34;72.40;62.80;36.40
85148;PMS7003;75507;52.464;17.180;2024-03-02T01:40:35;76.25;62.25;36.75
85148;PMS7003;75507;52.464;17.180;2024-03-02T01:41:35;77.80;63.40;38.20
85148;PMS7003;75507;52.464;17.180;2024-03-02T01:42:36;76.00;64.50;38.00
85148;PMS7003;75507;52.464;17.180;2024-03-02T01:43:37;78.20;67.00;39.40
85148;PMS7003;75507;52.464;17.180;2024-03-02T01:44:37;72.50;61.00;35.00
85148;PMS7003;75507;52.464;17.180;2024-03-02T01:45:37;74.67;62.33;37.00
85148;PMS7003;75507;52.464;17.180;2024-03-02T01:46:38;78.00;65.00;37.00
85148;PMS7003;75507;52.464;17.180;2024-03-02T01:47:38;76.75;66.75;38.25
85148;PMS7003;75507;52.464;17.180;2024-03-02T01:48:39;82.25;68.50;38.75
85148;PMS7003;75507;52.464;17.180;2024-03-02T01:49:39;80.25;69.50;39.00
85148;PMS7003;75507;52.464;17.180;2024-03-02T01:50:41;75.25;62.50;37.75
85148;PMS7003;75507;52.464;17.180;2024-03-02T01:51:41;81.50;70.75;36.00
85148;PMS7003;75507;52.464;17.180;2024-03-02T01:52:41;79.75;68.75;37.75
85148;PMS7003;75507;52.464;17.180;2024-03-02T01:53:44;75.60;63.80;35.60
85148;PMS7003;75507;52.464;17.180;2024-03-02T01:54:44;78.00;67.33;38.00
85148;PMS7003;75507;52.464;17.180;2024-03-02T01:55:44;75.50;66.00;36.75
85148;PMS7003;75507;52.464;17.180;2024-03-02T01:56:45;79.67;65.33;36.00
85148;PMS7003;75507;52.464;17.180;2024-03-02T01:57:45;78.67;67.33;37.33
85148;PMS7003;75507;52.464;17.180;2024-03-02T01:58:47;78.00;68.20;39.20
85148;PMS7003;75507;52.464;17.180;2024-03-02T01:59:47;78.00;63.67;38.33
85148;PMS7003;75507;52.464;17.180;2024-03-02T02:00:48;78.25;66.50;38.75
85148;PMS7003;75507;52.464;17.180;2024-03-02T02:01:48;77.25;64.00;35.50
85148;PMS7003;75507;52.464;17.180;2024-03-02T02:02:49;77.33;64.33;38.67
85148;PMS7003;75507;52.464;17.180;2024-03-02T02:03:49;76.75;63.75;36.50
85148;PMS7003;75507;52.464;17.180;2024-03-02T02:04:50;75.25;62.25;37.00
85148;PMS7003;75507;52.464;17.180;2024-03-02T02:05:50;78.50;64.00;35.25
85148;PMS7003;75507;52.464;17.180;2024-03-02T02:06:50;78.00;64.50;39.00
85148;PMS7003;75507;52.464;17.180;2024-03-02T02:07:51;79.75;67.25;36.75
85148;PMS7003;75507;52.464;17.180;2024-03-02T02:08:51;76.67;63.00;36.33
85148;PMS7003;75507;52.464;17.180;2024-03-02T02:09:51;79.50;68.50;39.00
85148;PMS7003;75507;52.464;17.180;2024-03-02T02:10:52;75.67;69.00;37.00
85148;PMS7003;75507;52.464;17.180;2024-03-02T02:11:52;76.75;65.75;37.00
85148;PMS7003;75507;52.464;17.180;2024-03-02T02:12:52;75.00;65.50;39.00
85148;PMS7003;75507;52.464;17.180;2024-03-02T02:13:53;74.50;61.00;35.00
85148;PMS7003;75507;52.464;17.180;2024-03-02T02:14:55;76.25;64.00;35.50
85148;PMS7003;75507;52.464;17.180;2024-03-02T02:16:03;77.25;65.50;37.25
85148;PMS7003;75507;52.464;17.180;2024-03-02T02:17:05;76.25;63.50;36.00
85148;PMS7003;75507;52.464;17.180;2024-03-02T02:18:05;73.00;61.00;35.75
85148;PMS7003;75507;52.464;17.180;2024-03-02T02:19:05;78.75;64.50;35.25
85148;PMS7003;75507;52.464;17.180;2024-03-02T02:20:06;75.75;63.50;36.00
85148;PMS7003;75507;52.464;17.180;2024-03-02T02:21:07;74.80;63.60;37.80
85148;PMS7003;75507;52.464;17.180;2024-03-02T02:22:09;77.00;66.50;37.00
85148;PMS7003;75507;52.464;17.180;2024-03-02T02:23:10;74.00;56.60;35.20
85148;PMS7003;75507;52.464;17.180;2024-03-02T02:24:10;75.25;58.75;35.75
85148;PMS7003;75507;52.464;17.180;2024-03-02T02:25:11;72.00;60.00;35.25
85148;PMS7003;75507;52.464;17.180;2024-03-02T02:26:11;72.25;57.50;34.75
85148;PMS7003;75507;52.464;17.180;2024-03-02T02:27:12;70.75;57.75;34.75
85148;PMS7003;75507;52.464;17.180;2024-03-02T02:28:15;76.00;58.50;35.00
85148;PMS7003;75507;52.464;17.180;2024-03-02T02:29:15;72.50;60.75;35.50
85148;PMS7003;75507;52.464;17.180;2024-03-02T02:30:23;73.00;59.00;36.33
85148;PMS7003;75507;52.464;17.180;2024-03-02T02:31:24;78.00;62.50;35.75
85148;PMS7003;75507;52.464;17.180;2024-03-02T02:32:25;72.00;56.75;35.00
85148;PMS7003;75507;52.464;17.180;2024-03-02T02:33:25;75.00;60.50;35.00
85148;PMS7003;75507;52.464;17.180;2024-03-02T02:34:25;76.67;64.67;37.00
85148;PMS7003;75507;52.464;17.180;2024-03-02T02:35:26;74.25;59.50;33.50
85148;PMS7003;75507;52.464;17.180;2024-03-02T02:36:26;74.00;60.75;34.75
85148;PMS7003;75507;52.464;17.180;2024-03-02T02:37:26;77.00;64.75;35.25
85148;PMS7003;75507;52.464;17.180;2024-03-02T02:38:27;74.25;60.00;35.00
85148;PMS7003;75507;52.464;17.180;2024-03-02T02:39:27;75.00;64.25;37.00
85148;PMS7003;75507;52.464;17.180;2024-03-02T02:40:28;74.25;60.50;36.50
85148;PMS7003;75507;52.464;17.180;2024-03-02T02:41:30;74.50;58.00;34.75
85148;PMS7003;75507;52.464;17.180;2024-03-02T02:42:30;73.00;57.25;34.75
85148;PMS7003;75507;52.464;17.180;2024-03-02T02:43:31;73.75;61.50;35.00
85148;PMS7003;75507;52.464;17.180;2024-03-02T02:44:31;73.50;59.50;34.00
85148;PMS7003;75507;52.464;17.180;2024-03-02T02:45:31;74.25;60.75;34.75
85148;PMS7003;75507;52.464;17.180;2024-03-02T02:46:32;73.00;61.00;35.67
85148;PMS7003;75507;52.464;17.180;2024-03-02T02:47:32;79.00;64.00;36.00
85148;PMS7003;75507;52.464;17.180;2024-03-02T02:48:35;74.00;61.60;36.60
85148;PMS7003;75507;52.464;17.180;2024-03-02T02:49:36;74.50;60.75;35.00
85148;PMS7003;75507;52.464;17.180;2024-03-02T02:50:36;75.33;65.33;35.33
85148;PMS7003;75507;52.464;17.180;2024-03-02T02:51:36;74.75;62.50;35.25
85148;PMS7003;75507;52.464;17.180;2024-03-02T02:52:38;72.67;58.00;34.33
85148;PMS7003;75507;52.464;17.180;2024-03-02T02:53:40;73.40;59.00;37.00
85148;PMS7003;75507;52.464;17.180;2024-03-02T02:54:40;75.33;61.67;35.00
85148;PMS7003;75507;52.464;17.180;2024-03-02T02:55:40;78.00;65.25;34.75
85148;PMS7003;75507;52.464;17.180;2024-03-02T02:56:43;73.50;60.00;36.00
85148;PMS7003;75507;52.464;17.180;2024-03-02T02:57:43;71.25;56.50;34.25
85148;PMS7003;75507;52.464;17.180;2024-03-02T02:58:44;76.25;64.50;37.00
85148;PMS7003;75507;52.464;17.180;2024-03-02T02:59:44;78.00;65.33;38.00
85148;PMS7003;75507;52.464;17.180;2024-03-02T03:00:45;76.75;64.75;35.75
85148;PMS7003;75507;52.464;17.180;2024-03-02T03:01:45;77.00;62.00;36.00
85148;PMS7003;75507;52.464;17.180;2024-03-02T03:02:46;72.50;58.00;34.00
85148;PMS7003;75507;52.464;17.180;2024-03-02T03:03:48;75.80;61.00;36.00
85148;PMS7003;75507;52.464;17.180;2024-03-02T03:04:48;75.33;64.67;36.67
85148;PMS7003;75507;52.464;17.180;2024-03-02T03:05:49;76.25;62.75;36.25
85148;PMS7003;75507;52.464;17.180;2024-03-02T03:06:49;71.00;58.67;35.33
85148;PMS7003;75507;52.464;17.180;2024-03-02T03:07:49;74.00;63.00;35.33
85148;PMS7003;75507;52.464;17.180;2024-03-02T03:08:50;75.75;64.50;37.75
85148;PMS7003;75507;52.464;17.180;2024-03-02T03:09:50;72.00;58.00;35.00
85148;PMS7003;75507;52.464;17.180;2024-03-02T03:10:50;73.33;57.33;35.00
85148;PMS7003;75507;52.464;17.180;2024-03-02T03:11:50;73.75;58.50;34.50
85148;PMS7003;75507;52.464;17.180;2024-03-02T03:12:51;77.00;60.50;36.50
85148;PMS7003;75507;52.464;17.180;2024-03-02T03:13:52;73.75;60.25;35.00
85148;PMS7003;75507;52.464;17.180;2024-03-02T03:14:54;74.00;61.00;35.20
85148;PMS7003;75507;52.464;17.180;2024-03-02T03:15:55;73.75;59.00;35.25
85148;PMS7003;75507;52.464;17.180;2024-03-02T03:16:55;73.25;60.50;34.75
85148;PMS7003;75507;52.464;17.180;2024-03-02T03:17:55;75.33;62.00;34.67
85148;PMS7003;75507;52.464;17.180;2024-03-02T03:18:56;75.00;64.00;34.75
85148;PMS7003;75507;52.464;17.180;2024-03-02T03:19:57;74.33;64.00;36.33
85148;PMS7003;75507;52.464;17.180;2024-03-02T03:20:57;71.75;59.50;34.00
85148;PMS7003;75507;52.464;17.180;2024-03-02T03:21:57;70.50;55.75;34.75
85148;PMS7003;75507;52.464;17.180;2024-03-02T03:22:58;76.50;63.25;35.75
85148;PMS7003;75507;52.464;17.180;2024-03-02T03:23:58;75.25;57.25;36.00
85148;PMS7003;75507;52.464;17.180;2024-03-02T03:24:58;72.00;57.75;34.50
85148;PMS7003;75507;52.464;17.180;2024-03-02T03:25:59;75.00;60.00;35.20
85148;PMS7003;75507;52.464;17.180;2024-03-02T03:27:00;74.75;61.25;35.00
85148;PMS7003;75507;52.464;17.180;2024-03-02T03:28:01;73.50;60.50;34.25
85148;PMS7003;75507;52.464;17.180;2024-03-02T03:29:01;70.50;57.00;35.00
85148;PMS7003;75507;52.464;17.180;2024-03-02T03:30:02;74.20;62.60;34.80
85148;PMS7003;75507;52.464;17.180;2024-03-02T03:31:03;72.50;58.75;35.00
85148;PMS7003;75507;52.464;17.180;2024-03-02T03:32:03;74.00;60.75;34.75
85148;PMS7003;75507;52.464;17.180;2024-03-02T03:33:05;72.75;60.00;33.25
85148;PMS7003;75507;52.464;17.180;2024-03-02T03:34:08;72.75;57.25;34.25
85148;PMS7003;75507;52.464;17.180;2024-03-02T03:35:08;74.00;61.33;35.00
85148;PMS7003;75507;52.464;17.180;2024-03-02T03:36:09;71.50;60.00;35.00
85148;PMS7003;75507;52.464;17.180;2024-03-02T03:38:14;74.60;57.80;34.60
85148;PMS7003;75507;52.464;17.180;2024-03-02T03:39:15;72.50;56.00;34.00
85148;PMS7003;75507;52.464;17.180;2024-03-02T03:40:15;72.00;56.75;34.25
85148;PMS7003;75507;52.464;17.180;2024-03-02T03:41:16;73.00;54.50;34.00
85148;PMS7003;75507;52.464;17.180;2024-03-02T03:42:16;73.00;59.33;34.33
85148;PMS7003;75507;52.464;17.180;2024-03-02T03:43:16;72.33;59.00;35.00
85148;PMS7003;75507;52.464;17.180;2024-03-02T03:44:17;73.25;57.50;35.00
85148;PMS7003;75507;52.464;17.180;2024-03-02T03:45:17;73.67;63.00;34.67
85148;PMS7003;75507;52.464;17.180;2024-03-02T03:46:18;71.50;58.00;34.00
85148;PMS7003;75507;52.464;17.180;2024-03-02T03:47:18;71.50;54.75;34.00
85148;PMS7003;75507;52.464;17.180;2024-03-02T03:48:18;72.25;56.75;33.75
85148;PMS7003;75507;52.464;17.180;2024-03-02T03:49:19;74.75;61.50;34.50
85148;PMS7003;75507;52.464;17.180;2024-03-02T03:50:19;73.00;59.50;35.00
85148;PMS7003;75507;52.464;17.180;2024-03-02T03:51:20;72.00;55.33;33.67
85148;PMS7003;75507;52.464;17.180;2024-03-02T03:52:20;70.33;51.33;33.33
85148;PMS7003;75507;52.464;17.180;2024-03-02T03:53:21;70.50;56.00;33.00
85148;PMS7003;75507;52.464;17.180;2024-03-02T03:54:22;69.25;54.00;34.00
85148;PMS7003;75507;52.464;17.180;2024-03-02T03:55:22;68.67;54.00;33.33
85148;PMS7003;75507;52.464;17.180;2024-03-02T03:56:22;71.75;56.50;34.50
85148;PMS7003;75507;52.464;17.180;2024-03-02T03:57:23;73.67;59.33;35.00
85148;PMS7003;75507;52.464;17.180;2024-03-02T03:58:23;72.25;59.50;35.00
85148;PMS7003;75507;52.464;17.180;2024-03-02T03:59:23;71.00;56.67;33.33
85148;PMS7003;75507;52.464;17.180;2024-03-02T04:00:24;74.75;60.50;34.75
85148;PMS7003;75507;52.464;17.180;2024-03-02T04:01:24;70.00;53.33;34.00
85148;PMS7003;75507;52.464;17.180;2024-03-02T04:02:24;69.00;54.75;33.00
85148;PMS7003;75507;52.464;17.180;2024-03-02T04:03:25;67.50;55.00;35.00
85148;PMS7003;75507;52.464;17.180;2024-03-02T04:04:25;74.00;57.50;34.75
85148;PMS7003;75507;52.464;17.180;2024-03-02T04:05:26;71.75;57.25;34.50
85148;PMS7003;75507;52.464;17.180;2024-03-02T04:06:27;73.20;57.20;35.00
85148;PMS7003;75507;52.464;17.180;2024-03-02T04:07:27;72.33;57.00;33.67
85148;PMS7003;75507;52.464;17.180;2024-03-02T04:08:28;72.50;61.00;35.25
85148;PMS7003;75507;52.464;17.180;2024-03-02T04:09:28;74.00;56.00;35.00
85148;PMS7003;75507;52.464;17.180;2024-03-02T04:10:29;70.25;60.25;34.00
85148;PMS7003;75507;52.464;17.180;2024-03-02T04:11:30;72.80;60.00;34.00
85148;PMS7003;75507;52.464;17.180;2024-03-02T04:12:30;68.75;54.50;33.75
85148;PMS7003;75507;52.464;17.180;2024-03-02T04:13:31;69.00;57.00;34.00
85148;PMS7003;75507;52.464;17.180;2024-03-02T04:14:31;70.00;54.50;34.75
85148;PMS7003;75507;52.464;17.180;2024-03-02T04:15:31;75.33;63.67;37.00
85148;PMS7003;75507;52.464;17.180;2024-03-02T04:16:32;72.00;56.67;34.67
85148;PMS7003;75507;52.464;17.180;2024-03-02T04:17:32;72.00;57.00;33.33
85148;PMS7003;75507;52.464;17.180;2024-03-02T04:18:33;70.40;54.20;33.40
85148;PMS7003;75507;52.464;17.180;2024-03-02T04:19:34;69.50;56.75;33.00
85148;PMS7003;75507;52.464;17.180;2024-03-02T04:20:35;69.75;53.50;33.00
85148;PMS7003;75507;52.464;17.180;2024-03-02T04:21:35;73.00;59.00;34.00
85148;PMS7003;75507;52.464;17.180;2024-03-02T04:22:36;77.25;59.25;34.00
85148;PMS7003;75507;52.464;17.180;2024-03-02T04:23:36;73.25;60.25;35.00
85148;PMS7003;75507;52.464;17.180;2024-03-02T04:24:36;69.00;56.33;34.00
85148;PMS7003;75507;52.464;17.180;2024-03-02T04:25:37;72.75;53.75;33.25
85148;PMS7003;75507;52.464;17.180;2024-03-02T04:26:37;73.00;57.25;34.00
85148;PMS7003;75507;52.464;17.180;2024-03-02T04:27:37;74.33;59.33;34.00
85148;PMS7003;75507;52.464;17.180;2024-03-02T04:28:38;74.25;59.25;35.00
85148;PMS7003;75507;52.464;17.180;2024-03-02T04:29:38;76.00;61.00;35.00
85148;PMS7003;75507;52.464;17.180;2024-03-02T04:30:39;71.50;56.00;34.00
85148;PMS7003;75507;52.464;17.180;2024-03-02T04:31:39;74.50;58.00;33.50
85148;PMS7003;75507;52.464;17.180;2024-03-02T04:32:39;74.00;58.00;34.00
85148;PMS7003;75507;52.464;17.180;2024-03-02T04:33:39;70.50;55.75;33.25
85148;PMS7003;75507;52.464;17.180;2024-03-02T04:34:40;70.25;56.75;35.00
85148;PMS7003;75507;52.464;17.180;2024-03-02T04:35:40;72.50;59.25;33.50
85148;PMS7003;75507;52.464;17.180;2024-03-02T04:36:41;71.67;55.67;33.33
85148;PMS7003;75507;52.464;17.180;2024-03-02T04:37:41;71.33;57.67;34.00
85148;PMS7003;75507;52.464;17.180;2024-03-02T04:38:41;74.00;59.67;34.00
85148;PMS7003;75507;52.464;17.180;2024-03-02T04:39:41;70.00;56.33;33.67
85148;PMS7003;75507;52.464;17.180;2024-03-02T04:40:42;71.75;59.00;33.00
85148;PMS7003;75507;52.464;17.180;2024-03-02T04:41:42;73.75;59.75;34.00
85148;PMS7003;75507;52.464;17.180;2024-03-02T04:42:43;74.00;56.75;33.75
85148;PMS7003;75507;52.464;17.180;2024-03-02T04:43:43;70.50;58.25;33.50
85148;PMS7003;75507;52.464;17.180;2024-03-02T04:44:43;74.00;59.00;33.00
85148;PMS7003;75507;52.464;17.180;2024-03-02T04:45:44;75.00;60.33;34.33
85148;PMS7003;75507;52.464;17.180;2024-03-02T04:46:44;75.50;57.00;35.00
85148;PMS7003;75507;52.464;17.180;2024-03-02T04:47:44;70.00;54.00;33.00
85148;PMS7003;75507;52.464;17.180;2024-03-02T04:48:44;74.33;57.33;34.00
85148;PMS7003;75507;52.464;17.180;2024-03-02T04:49:45;74.00;57.67;33.00
85148;PMS7003;75507;52.464;17.180;2024-03-02T04:50:46;70.80;56.20;34.20
85148;PMS7003;75507;52.464;17.180;2024-03-02T04:51:46;70.00;54.25;32.75
85148;PMS7003;75507;52.464;17.180;2024-03-02T04:52:46;74.00;62.00;35.00
85148;PMS7003;75507;52.464;17.180;2024-03-02T04:53:47;74.33;61.00;34.00
85148;PMS7003;75507;52.464;17.180;2024-03-02T04:54:47;75.00;62.67;35.00
85148;PMS7003;75507;52.464;17.180;2024-03-02T04:56:09;72.50;55.75;33.75
85148;PMS7003;75507;52.464;17.180;2024-03-02T04:57:43;73.50;60.00;35.00
85148;PMS7003;75507;52.464;17.180;2024-03-02T04:58:44;73.50;59.00;34.00
85148;PMS7003;75507;52.464;17.180;2024-03-02T04:59:44;72.33;58.33;33.67
85148;PMS7003;75507;52.464;17.180;2024-03-02T05:00:44;71.50;58.00;32.50
85148;PMS7003;75507;52.464;17.180;2024-03-02T05:01:46;72.00;56.50;34.50
85148;PMS7003;75507;52.464;17.180;2024-03-02T05:02:47;72.00;57.50;34.00
85148;PMS7003;75507;52.464;17.180;2024-03-02T05:03:47;75.25;61.00;34.00
85148;PMS7003;75507;52.464;17.180;2024-03-02T05:04:48;75.33;58.67;34.00
85148;PMS7003;75507;52.464;17.180;2024-03-02T05:05:48;71.25;54.25;33.25
85148;PMS7003;75507;52.464;17.180;2024-03-02T05:06:49;74.50;59.00;34.00
85148;PMS7003;75507;52.464;17.180;2024-03-02T05:07:52;73.25;57.25;34.00
85148;PMS7003;75507;52.464;17.180;2024-03-02T05:08:52;72.00;58.75;34.00
85148;PMS7003;75507;52.464;17.180;2024-03-02T05:09:53;72.00;57.25;33.75
85148;PMS7003;75507;52.464;17.180;2024-03-02T05:10:53;75.25;56.75;33.75
85148;PMS7003;75507;52.464;17.180;2024-03-02T05:11:53;70.75;57.50;34.50
85148;PMS7003;75507;52.464;17.180;2024-03-02T05:13:14;68.50;51.75;32.75
85148;PMS7003;75507;52.464;17.180;2024-03-02T05:14:15;73.00;60.75;35.00
85148;PMS7003;75507;52.464;17.180;2024-03-02T05:15:15;72.75;56.50;34.00
85148;PMS7003;75507;52.464;17.180;2024-03-02T05:16:15;73.67;58.67;34.00
85148;PMS7003;75507;52.464;17.180;2024-03-02T05:17:16;73.75;58.75;35.00
85148;PMS7003;75507;52.464;17.180;2024-03-02T05:18:16;72.75;59.00;34.25
85148;PMS7003;75507;52.464;17.180;2024-03-02T05:19:16;71.67;57.00;34.00
85148;PMS7003;75507;52.464;17.180;2024-03-02T05:20:17;71.00;55.67;34.33
85148;PMS7003;75507;52.464;17.180;2024-03-02T05:21:17;75.75;60.75;34.75
85148;PMS7003;75507;52.464;17.180;2024-03-02T05:22:18;72.00;59.00;33.00
85148;PMS7003;75507;52.464;17.180;2024-03-02T05:23:18;72.00;55.33;33.67
85148;PMS7003;75507;52.464;17.180;2024-03-02T05:24:18;73.33;59.00;35.00
85148;PMS7003;75507;52.464;17.180;2024-03-02T05:25:19;74.50;60.00;34.00
85148;PMS7003;75507;52.464;17.180;2024-03-02T05:26:19;74.50;62.25;35.00
85148;PMS7003;75507;52.464;17.180;2024-03-02T05:27:19;71.75;55.75;34.00
85148;PMS7003;75507;52.464;17.180;2024-03-02T05:28:20;73.00;55.00;35.00
85148;PMS7003;75507;52.464;17.180;2024-03-02T05:29:20;75.25;56.25;33.00
85148;PMS7003;75507;52.464;17.180;2024-03-02T05:30:21;74.00;60.75;34.50
85148;PMS7003;75507;52.464;17.180;2024-03-02T05:31:21;71.00;56.50;34.25
85148;PMS7003;75507;52.464;17.180;2024-03-02T05:32:21;74.00;60.67;34.33
85148;PMS7003;75507;52.464;17.180;2024-03-02T05:33:22;74.67;57.00;34.33
85148;PMS7003;75507;52.464;17.180;2024-03-02T05:34:22;74.75;57.00;34.00
85148;PMS7003;75507;52.464;17.180;2024-03-02T05:35:22;71.50;56.50;34.00
85148;PMS7003;75507;52.464;17.180;2024-03-02T05:36:23;71.75;57.00;33.00
85148;PMS7003;75507;52.464;17.180;2024-03-02T05:37:23;69.00;53.67;33.33
85148;PMS7003;75507;52.464;17.180;2024-03-02T05:38:23;75.00;60.00;34.25
85148;PMS7003;75507;52.464;17.180;2024-03-02T05:39:24;72.50;55.50;34.00
85148;PMS7003;75507;52.464;17.180;2024-03-02T05:40:24;74.00;59.25;32.75
85148;PMS7003;75507;52.464;17.180;2024-03-02T05:41:24;71.00;55.33;34.00